createdAt,value
2023-01-29T00:01:14.700Z,1.30
2023-01-29T00:03:41.663Z,1.28
2023-01-29T00:06:08.749Z,1.42
2023-01-29T00:08:39.066Z,1.39
2023-01-29T00:11:07.050Z,1.44
2023-01-29T00:13:37.030Z,1.30
2023-01-29T00:16:04.009Z,1.22
2023-01-29T00:18:31.019Z,1.36
2023-01-29T00:20:57.629Z,1.29
2023-01-29T00:23:24.881Z,1.21
2023-01-29T00:25:51.489Z,1.34
2023-01-29T00:28:18.143Z,1.24
2023-01-29T00:30:44.759Z,1.22
2023-01-29T00:33:13.460Z,1.14
2023-01-29T00:35:40.996Z,1.14
2023-01-29T00:38:07.565Z,1.04
2023-01-29T00:40:56.827Z,1.36
2023-01-29T00:43:42.158Z,1.25
2023-01-29T00:46:09.179Z,1.21
2023-01-29T00:48:35.742Z,1.12
2023-01-29T00:51:03.242Z,1.27
2023-01-29T00:53:30.360Z,1.25
2023-01-29T00:55:57.071Z,1.20
2023-01-29T00:58:28.315Z,1.22
2023-01-29T01:00:56.054Z,1.23
2023-01-29T01:03:22.631Z,1.19
2023-01-29T01:05:49.258Z,1.28
2023-01-29T01:08:34.752Z,1.16
2023-01-29T01:11:02.594Z,1.22
2023-01-29T01:13:30.277Z,1.29
2023-01-29T01:15:57.119Z,1.14
2023-01-29T01:18:23.681Z,1.14
2023-01-29T01:20:51.714Z,1.04
2023-01-29T01:23:19.412Z,1.00
2023-01-29T01:25:46.604Z,1.04
2023-01-29T01:28:13.225Z,0.93
2023-01-29T01:30:40.110Z,1.00
2023-01-29T01:33:07.345Z,1.11
2023-01-29T01:35:33.913Z,1.03
2023-01-29T01:38:00.502Z,1.07
2023-01-29T01:40:27.102Z,1.19
2023-01-29T01:42:55.633Z,1.13
2023-01-29T01:45:26.225Z,1.31
2023-01-29T01:47:56.010Z,1.18
2023-01-29T01:50:25.915Z,1.19
2023-01-29T01:52:55.614Z,1.27
2023-01-29T01:55:25.042Z,1.46
2023-01-29T01:57:54.571Z,1.56
2023-01-29T02:00:23.548Z,1.51
2023-01-29T02:03:08.799Z,1.45
2023-01-29T02:05:55.356Z,1.47
2023-01-29T02:08:48.806Z,1.40
2023-01-29T02:11:16.123Z,1.46
2023-01-29T02:13:43.207Z,1.62
2023-01-29T02:16:09.875Z,1.43
2023-01-29T02:18:38.204Z,1.35
2023-01-29T02:21:06.059Z,1.38
2023-01-29T02:23:38.904Z,1.30
2023-01-29T02:26:14.758Z,1.33
2023-01-29T02:28:50.227Z,1.27
2023-01-29T02:31:24.735Z,1.27
2023-01-29T02:34:10.196Z,1.27
2023-01-29T02:36:41.603Z,1.36
2023-01-29T02:39:15.333Z,1.24
2023-01-29T02:42:21.343Z,1.43
2023-01-29T02:44:52.457Z,1.42
2023-01-29T02:47:22.907Z,1.28
2023-01-29T02:50:03.646Z,1.24
2023-01-29T02:52:38.567Z,1.31
2023-01-29T02:55:08.818Z,1.34
2023-01-29T02:57:37.955Z,1.33
2023-01-29T03:00:07.602Z,1.37
2023-01-29T03:02:47.900Z,1.33
2023-01-29T03:05:21.894Z,1.42
2023-01-29T03:07:52.085Z,1.23
2023-01-29T03:10:33.547Z,1.43
2023-01-29T03:13:04.456Z,1.36
2023-01-29T03:15:42.911Z,1.43
2023-01-29T03:18:27.844Z,1.44
2023-01-29T03:21:04.542Z,1.40
2023-01-29T03:23:53.577Z,1.38
2023-01-29T03:26:39.975Z,1.36
2023-01-29T03:29:27.462Z,1.33
2023-01-29T03:32:07.986Z,1.28
2023-01-29T03:34:39.577Z,1.41
2023-01-29T03:37:25.034Z,1.27
2023-01-29T03:39:51.781Z,1.34
2023-01-29T03:42:33.938Z,1.24
2023-01-29T03:45:16.810Z,1.22
2023-01-29T03:47:47.752Z,1.03
2023-01-29T03:50:20.662Z,1.16
2023-01-29T03:53:16.806Z,1.31
2023-01-29T03:55:55.380Z,1.20
2023-01-29T03:58:42.652Z,1.15
2023-01-29T04:01:12.932Z,0.88
2023-01-29T04:03:48.419Z,1.10
2023-01-29T04:06:20.720Z,1.32
2023-01-29T04:09:20.267Z,1.08
2023-01-29T04:11:50.040Z,1.19
2023-01-29T04:14:19.936Z,1.30
2023-01-29T04:16:50.113Z,1.04
2023-01-29T04:19:43.459Z,1.08
2023-01-29T04:22:14.000Z,1.04
2023-01-29T04:24:41.487Z,1.05
2023-01-29T04:27:11.016Z,1.04
2023-01-29T04:29:38.588Z,1.03
2023-01-29T04:32:19.396Z,1.12
2023-01-29T04:34:46.564Z,1.02
2023-01-29T04:37:22.334Z,1.15
2023-01-29T04:39:54.116Z,1.15
2023-01-29T04:42:20.713Z,1.24
2023-01-29T04:44:59.558Z,1.13
2023-01-29T04:47:26.327Z,1.08
2023-01-29T04:49:52.915Z,1.24
2023-01-29T04:52:19.487Z,1.10
2023-01-29T04:54:51.899Z,1.16
2023-01-29T04:57:25.549Z,1.18
2023-01-29T05:00:02.762Z,1.01
2023-01-29T05:02:30.600Z,0.97
2023-01-29T05:04:58.798Z,0.90
2023-01-29T05:07:27.280Z,1.01
2023-01-29T05:09:54.348Z,0.90
2023-01-29T05:12:22.843Z,0.91
2023-01-29T05:14:50.601Z,0.75
2023-01-29T05:17:19.559Z,0.93
2023-01-29T05:19:46.721Z,0.86
2023-01-29T05:22:15.321Z,1.07
2023-01-29T05:24:41.902Z,1.02
2023-01-29T05:27:30.981Z,0.93
2023-01-29T05:29:58.023Z,1.01
2023-01-29T05:32:24.691Z,0.96
2023-01-29T05:34:51.261Z,1.01
2023-01-29T05:37:17.844Z,0.89
2023-01-29T05:39:44.416Z,0.99
2023-01-29T05:42:10.971Z,1.09
2023-01-29T05:44:37.582Z,0.97
2023-01-29T05:47:04.208Z,0.92
2023-01-29T05:49:30.817Z,0.96
2023-01-29T05:51:57.397Z,0.90
2023-01-29T05:54:23.997Z,1.06
2023-01-29T05:56:51.048Z,1.19
2023-01-29T05:59:17.826Z,0.96
2023-01-29T06:01:44.390Z,0.99
2023-01-29T06:04:11.008Z,1.21
2023-01-29T06:06:37.614Z,1.31
2023-01-29T06:09:04.381Z,1.27
2023-01-29T06:11:30.924Z,1.29
2023-01-29T06:13:57.964Z,1.34
2023-01-29T06:16:24.601Z,1.39
2023-01-29T06:18:51.203Z,1.39
2023-01-29T06:21:19.973Z,1.34
2023-01-29T06:23:47.758Z,1.33
2023-01-29T06:26:15.287Z,1.28
2023-01-29T06:28:42.118Z,1.38
2023-01-29T06:31:26.612Z,1.43
2023-01-29T06:33:56.122Z,1.29
2023-01-29T06:36:22.648Z,1.39
2023-01-29T06:38:49.422Z,1.44
2023-01-29T06:41:25.301Z,1.38
2023-01-29T06:43:52.288Z,1.46
2023-01-29T06:46:18.829Z,1.62
2023-01-29T06:48:45.495Z,1.60
2023-01-29T06:51:12.044Z,1.56
2023-01-29T06:53:40.133Z,1.63
2023-01-29T06:56:07.392Z,1.64
2023-01-29T06:58:36.337Z,1.60
2023-01-29T07:01:04.207Z,1.82
2023-01-29T07:03:30.854Z,1.85
2023-01-29T07:05:57.381Z,1.88
2023-01-29T07:08:23.997Z,1.92
2023-01-29T07:10:50.730Z,2.00
2023-01-29T07:13:17.508Z,1.85
2023-01-29T07:15:44.564Z,1.88
2023-01-29T07:18:14.374Z,1.73
2023-01-29T07:20:41.804Z,1.92
2023-01-29T07:23:12.652Z,1.90
2023-01-29T07:25:41.950Z,1.92
2023-01-29T07:28:08.559Z,1.85
2023-01-29T07:30:35.526Z,1.87
2023-01-29T07:33:04.398Z,2.01
2023-01-29T07:35:36.445Z,1.82
2023-01-29T07:38:03.107Z,1.75
2023-01-29T07:40:29.726Z,1.74
2023-01-29T07:42:59.962Z,2.02
2023-01-29T07:45:27.834Z,1.95
2023-01-29T07:47:55.206Z,1.91
2023-01-29T07:50:22.732Z,1.79
2023-01-29T07:52:49.299Z,2.15
2023-01-29T07:55:15.962Z,2.04
2023-01-29T07:57:42.539Z,1.96
2023-01-29T08:00:10.383Z,1.89
2023-01-29T08:02:40.307Z,1.98
2023-01-29T08:05:07.149Z,2.06
2023-01-29T08:07:33.715Z,2.16
2023-01-29T08:10:00.334Z,2.10
2023-01-29T08:12:26.865Z,2.29
2023-01-29T08:14:53.431Z,2.14
2023-01-29T08:17:22.297Z,2.22
2023-01-29T08:19:48.945Z,2.02
2023-01-29T08:22:16.591Z,2.11
2023-01-29T08:24:53.844Z,2.18
2023-01-29T08:27:26.674Z,2.40
2023-01-29T08:29:55.954Z,2.17
2023-01-29T08:32:22.566Z,2.20
2023-01-29T08:34:49.080Z,2.21
2023-01-29T08:37:15.702Z,2.29
2023-01-29T08:42:13.707Z,2.26
2023-01-29T08:44:40.283Z,2.28
2023-01-29T08:47:06.863Z,2.32
2023-01-29T08:49:35.842Z,2.27
2023-01-29T08:52:03.933Z,2.40
2023-01-29T08:54:30.528Z,2.47
2023-01-29T08:56:59.848Z,2.41
2023-01-29T08:59:26.457Z,2.39
2023-01-29T09:01:53.040Z,2.44
2023-01-29T09:04:19.599Z,2.60
2023-01-29T09:06:46.261Z,2.61
2023-01-29T09:09:14.546Z,2.81
2023-01-29T09:11:41.163Z,2.76
2023-01-29T09:14:10.184Z,2.77
2023-01-29T09:16:37.489Z,2.78
2023-01-29T09:19:04.040Z,2.81
2023-01-29T09:21:30.728Z,2.94
2023-01-29T09:23:57.634Z,2.99
2023-01-29T09:26:26.526Z,2.85
2023-01-29T09:28:53.118Z,3.04
2023-01-29T09:31:19.802Z,3.11
2023-01-29T09:33:46.499Z,3.07
2023-01-29T09:36:16.112Z,2.89
2023-01-29T09:38:45.027Z,2.91
2023-01-29T09:41:20.841Z,2.82
2023-01-29T09:44:04.787Z,2.79
2023-01-29T09:46:31.540Z,2.74
2023-01-29T09:49:02.557Z,2.64
2023-01-29T09:51:37.838Z,2.82
2023-01-29T09:54:07.528Z,2.91
2023-01-29T09:56:35.231Z,3.01
2023-01-29T09:59:02.156Z,3.01
2023-01-29T10:01:49.187Z,3.01
2023-01-29T10:04:18.936Z,3.18
2023-01-29T10:06:54.560Z,3.28
2023-01-29T10:09:39.362Z,3.29
2023-01-29T10:12:24.873Z,3.23
2023-01-29T10:14:54.129Z,3.03
2023-01-29T10:17:43.576Z,3.11
2023-01-29T10:20:16.235Z,2.91
2023-01-29T10:22:42.869Z,2.93
2023-01-29T10:25:20.704Z,3.19
2023-01-29T10:27:50.918Z,3.31
2023-01-29T10:30:22.159Z,3.15
2023-01-29T10:32:50.160Z,2.94
2023-01-29T10:35:31.770Z,2.78
2023-01-29T10:38:02.265Z,2.88
2023-01-29T10:40:38.023Z,2.78
2023-01-29T10:43:16.360Z,2.91
2023-01-29T10:45:49.513Z,2.70
2023-01-29T10:48:34.777Z,2.90
2023-01-29T10:51:21.641Z,2.82
2023-01-29T10:53:57.446Z,2.99
2023-01-29T10:56:24.066Z,2.99
2023-01-29T10:58:50.835Z,3.04
2023-01-29T11:01:17.711Z,3.16
2023-01-29T11:03:44.464Z,2.95
2023-01-29T11:06:45.730Z,3.02
2023-01-29T11:09:34.561Z,3.11
2023-01-29T11:12:01.174Z,2.90
2023-01-29T11:14:27.736Z,2.93
2023-01-29T11:16:56.841Z,2.72
2023-01-29T11:19:36.962Z,2.76
2023-01-29T11:22:04.479Z,3.08
2023-01-29T11:24:31.195Z,2.91
2023-01-29T11:26:58.840Z,3.02
2023-01-29T11:29:44.908Z,3.03
2023-01-29T11:32:14.577Z,2.93
2023-01-29T11:34:59.731Z,2.90
2023-01-29T11:37:37.320Z,3.09
2023-01-29T11:40:20.734Z,3.15
2023-01-29T11:42:51.334Z,3.15
2023-01-29T11:45:29.945Z,2.92
2023-01-29T11:47:58.435Z,3.07
2023-01-29T11:50:34.519Z,3.15
2023-01-29T11:53:01.751Z,3.02
2023-01-29T11:55:41.009Z,3.24
2023-01-29T11:58:18.595Z,3.27
2023-01-29T12:00:50.788Z,3.40
2023-01-29T12:03:24.870Z,3.36
2023-01-29T12:05:57.094Z,3.35
2023-01-29T12:08:24.414Z,3.45
2023-01-29T12:11:06.842Z,3.51
2023-01-29T12:13:35.724Z,3.65
2023-01-29T12:16:10.803Z,3.57
2023-01-29T12:18:43.578Z,3.28
2023-01-29T12:21:14.363Z,3.39
2023-01-29T12:23:59.905Z,3.55
2023-01-29T12:26:44.637Z,3.41
2023-01-29T12:29:20.619Z,3.33
2023-01-29T12:31:57.625Z,3.38
2023-01-29T12:34:31.180Z,3.45
2023-01-29T12:37:00.789Z,3.22
2023-01-29T12:39:29.507Z,3.37
2023-01-29T12:42:04.705Z,3.54
2023-01-29T12:44:42.536Z,3.64
2023-01-29T12:47:17.215Z,3.45
2023-01-29T12:49:46.758Z,3.33
2023-01-29T12:52:17.966Z,3.29
2023-01-29T12:54:50.056Z,3.21
2023-01-29T12:57:20.750Z,3.33
2023-01-29T12:59:49.692Z,3.44
2023-01-29T13:02:39.737Z,3.55
2023-01-29T13:05:41.794Z,3.37
2023-01-29T13:08:31.455Z,3.76
2023-01-29T13:11:01.579Z,3.55
2023-01-29T13:13:38.654Z,3.40
2023-01-29T13:16:09.984Z,3.64
2023-01-29T13:18:40.589Z,3.43
2023-01-29T13:21:12.089Z,3.56
2023-01-29T13:23:42.780Z,3.65
2023-01-29T13:26:09.512Z,3.65
2023-01-29T13:28:36.431Z,3.68
2023-01-29T13:31:12.272Z,3.63
2023-01-29T13:33:40.646Z,3.86
2023-01-29T13:36:11.327Z,3.88
2023-01-29T13:38:38.074Z,3.90
2023-01-29T13:41:05.882Z,3.65
2023-01-29T13:43:37.863Z,3.80
2023-01-29T13:46:12.406Z,3.51
2023-01-29T13:48:43.780Z,3.73
2023-01-29T13:51:17.800Z,3.73
2023-01-29T13:53:52.420Z,3.86
2023-01-29T13:56:39.356Z,3.77
2023-01-29T13:59:08.284Z,3.75
2023-01-29T14:01:47.258Z,3.79
2023-01-29T14:04:28.347Z,3.78
2023-01-29T14:06:55.630Z,3.97
2023-01-29T14:09:32.471Z,3.80
2023-01-29T14:11:59.412Z,3.91
2023-01-29T14:14:44.678Z,3.85
2023-01-29T14:17:12.045Z,3.80
2023-01-29T14:19:38.569Z,3.74
2023-01-29T14:22:05.618Z,3.80
2023-01-29T14:24:33.744Z,3.66
2023-01-29T14:27:00.447Z,3.78
2023-01-29T14:29:43.540Z,3.68
2023-01-29T14:32:10.115Z,3.45
2023-01-29T14:34:42.640Z,3.53
2023-01-29T14:37:15.080Z,3.55
2023-01-29T14:39:47.184Z,3.89
2023-01-29T14:42:22.847Z,3.75
2023-01-29T14:44:55.516Z,3.80
2023-01-29T14:47:22.089Z,3.68
2023-01-29T14:49:49.584Z,3.89
2023-01-29T14:52:17.167Z,4.07
2023-01-29T14:54:47.186Z,4.13
2023-01-29T14:57:15.269Z,3.98
2023-01-29T14:59:55.243Z,3.85
2023-01-29T15:02:33.758Z,3.98
2023-01-29T15:05:01.585Z,3.71
2023-01-29T15:07:42.854Z,3.94
2023-01-29T15:10:22.859Z,3.90
2023-01-29T15:12:50.399Z,3.78
2023-01-29T15:15:20.633Z,3.93
2023-01-29T15:18:06.011Z,3.72
2023-01-29T15:20:33.853Z,4.00
2023-01-29T15:23:03.126Z,3.74
2023-01-29T15:25:34.433Z,3.76
2023-01-29T15:28:02.263Z,3.71
2023-01-29T15:30:33.133Z,3.67
2023-01-29T15:33:00.695Z,3.77
2023-01-29T15:35:40.714Z,3.80
2023-01-29T15:38:07.511Z,3.55
2023-01-29T15:40:39.306Z,3.69
2023-01-29T15:43:20.294Z,3.74
2023-01-29T15:45:47.345Z,3.64
2023-01-29T15:48:17.454Z,3.63
2023-01-29T15:50:44.492Z,3.56
2023-01-29T15:53:20.101Z,3.48
2023-01-29T15:55:49.844Z,3.33
2023-01-29T15:58:18.406Z,3.33
2023-01-29T16:00:55.755Z,3.57
2023-01-29T16:03:23.375Z,3.48
2023-01-29T16:05:50.690Z,3.54
2023-01-29T16:08:18.637Z,3.79
2023-01-29T16:10:45.932Z,3.76
2023-01-29T16:13:19.982Z,3.66
2023-01-29T16:15:57.907Z,3.85
2023-01-29T16:19:01.140Z,3.60
2023-01-29T16:21:31.348Z,3.55
2023-01-29T16:24:02.603Z,3.59
2023-01-29T16:26:31.970Z,3.47
2023-01-29T16:29:03.879Z,3.47
2023-01-29T16:31:32.003Z,3.43
2023-01-29T16:34:00.078Z,3.54
2023-01-29T16:36:27.953Z,3.72
2023-01-29T16:38:57.774Z,3.58
2023-01-29T16:41:24.578Z,3.60
2023-01-29T16:44:03.548Z,3.38
2023-01-29T16:46:38.238Z,3.23
2023-01-29T16:49:25.151Z,3.06
2023-01-29T16:51:52.217Z,3.22
2023-01-29T16:54:22.257Z,3.11
2023-01-29T16:56:50.468Z,3.36
2023-01-29T16:59:19.074Z,3.25
2023-01-29T17:01:45.740Z,3.09
2023-01-29T17:04:17.173Z,2.94
2023-01-29T17:07:06.458Z,2.65
2023-01-29T17:09:35.257Z,3.01
2023-01-29T17:12:03.777Z,2.93
2023-01-29T17:14:31.812Z,2.98
2023-01-29T17:17:14.318Z,2.74
2023-01-29T17:19:40.982Z,2.76
2023-01-29T17:22:14.869Z,2.84
2023-01-29T17:24:41.850Z,2.92
2023-01-29T17:27:17.068Z,2.71
2023-01-29T17:29:43.680Z,2.83
2023-01-29T17:32:10.473Z,2.75
2023-01-29T17:34:37.530Z,2.64
2023-01-29T17:37:04.102Z,2.81
2023-01-29T17:39:30.722Z,2.75
2023-01-29T17:42:01.453Z,2.76
2023-01-29T17:44:28.135Z,2.67
2023-01-29T17:46:54.739Z,2.71
2023-01-29T17:49:24.428Z,2.88
2023-01-29T17:51:54.919Z,2.70
2023-01-29T17:54:22.164Z,2.80
2023-01-29T17:56:52.009Z,2.97
2023-01-29T17:59:22.484Z,3.12
2023-01-29T18:01:50.194Z,2.99
2023-01-29T18:04:17.279Z,2.98
2023-01-29T18:06:44.928Z,3.07
2023-01-29T18:09:15.438Z,3.06
2023-01-29T18:11:42.429Z,3.10
2023-01-29T18:14:14.157Z,3.08
2023-01-29T18:16:42.226Z,3.03
2023-01-29T18:19:15.116Z,3.12
2023-01-29T18:21:41.900Z,3.02
2023-01-29T18:24:10.689Z,3.03
2023-01-29T18:26:38.130Z,3.05
2023-01-29T18:29:05.071Z,3.27
2023-01-29T18:31:31.874Z,3.12
2023-01-29T18:33:59.620Z,3.10
2023-01-29T18:36:26.276Z,3.13
2023-01-29T18:38:52.946Z,3.18
2023-01-29T18:41:19.563Z,3.13
2023-01-29T18:43:46.081Z,2.96
2023-01-29T18:46:15.652Z,2.91
2023-01-29T18:48:42.918Z,3.06
2023-01-29T18:51:09.730Z,3.08
2023-01-29T18:53:36.385Z,3.15
2023-01-29T18:56:05.386Z,3.01
2023-01-29T18:58:35.663Z,2.78
2023-01-29T19:01:07.155Z,2.89
2023-01-29T19:03:33.827Z,2.88
2023-01-29T19:06:06.639Z,2.73
2023-01-29T19:08:36.590Z,2.89
2023-01-29T19:11:05.567Z,3.04
2023-01-29T19:13:34.832Z,3.10
2023-01-29T19:16:02.476Z,2.97
2023-01-29T19:18:29.048Z,2.93
2023-01-29T19:20:55.703Z,2.85
2023-01-29T19:23:22.563Z,2.95
2023-01-29T19:25:49.253Z,3.20
2023-01-29T19:28:15.984Z,3.29
2023-01-29T19:30:42.673Z,3.16
2023-01-29T19:33:10.319Z,3.25
2023-01-29T19:35:37.204Z,3.16
2023-01-29T19:38:04.387Z,3.26
2023-01-29T19:40:31.099Z,3.36
2023-01-29T19:43:00.749Z,3.20
2023-01-29T19:45:37.355Z,3.24
2023-01-29T19:48:17.074Z,2.91
2023-01-29T19:50:43.648Z,2.83
2023-01-29T19:53:10.309Z,2.92
2023-01-29T19:55:36.921Z,2.82
2023-01-29T19:58:04.763Z,2.82
2023-01-29T20:00:31.444Z,2.95
2023-01-29T20:02:58.139Z,2.74
2023-01-29T20:05:29.385Z,2.74
2023-01-29T20:07:55.978Z,2.85
2023-01-29T20:10:22.625Z,2.77
2023-01-29T20:12:49.438Z,2.67
2023-01-29T20:15:17.626Z,2.85
2023-01-29T20:17:48.389Z,2.86
2023-01-29T20:20:16.637Z,2.71
2023-01-29T20:22:45.552Z,2.80
2023-01-29T20:25:16.519Z,2.73
2023-01-29T20:27:43.274Z,2.82
2023-01-29T20:30:10.134Z,2.76
2023-01-29T20:32:36.748Z,2.89
2023-01-29T20:35:03.742Z,2.57
2023-01-29T20:37:30.355Z,2.80
2023-01-29T20:40:00.015Z,2.64
2023-01-29T20:42:26.623Z,2.63
2023-01-29T20:44:53.413Z,2.85
2023-01-29T20:47:20.096Z,2.72
2023-01-29T20:49:47.561Z,2.74
2023-01-29T20:52:20.513Z,2.70
2023-01-29T20:54:47.269Z,2.94
2023-01-29T20:57:13.886Z,2.87
2023-01-29T20:59:40.595Z,2.92
2023-01-29T21:02:07.147Z,2.66
2023-01-29T21:04:33.745Z,2.56
2023-01-29T21:07:00.531Z,2.66
2023-01-29T21:09:30.010Z,2.85
2023-01-29T21:11:56.564Z,3.00
2023-01-29T21:14:23.229Z,2.61
2023-01-29T21:16:52.161Z,2.76
2023-01-29T21:19:18.830Z,2.80
2023-01-29T21:21:45.398Z,2.88
2023-01-29T21:24:13.061Z,2.69
2023-01-29T21:26:47.052Z,2.80
2023-01-29T21:29:14.480Z,2.80
2023-01-29T21:31:41.345Z,2.75
2023-01-29T21:34:08.517Z,2.90
2023-01-29T21:36:35.692Z,2.87
2023-01-29T21:39:16.425Z,2.89
2023-01-29T21:42:05.930Z,2.99
2023-01-29T21:44:35.203Z,2.80
2023-01-29T21:47:12.372Z,2.97
2023-01-29T21:49:40.407Z,2.91
2023-01-29T21:52:09.776Z,3.06
2023-01-29T21:54:36.621Z,3.10
2023-01-29T21:57:04.660Z,2.97
2023-01-29T21:59:34.636Z,2.96
2023-01-29T22:02:01.513Z,2.91
2023-01-29T22:04:29.752Z,3.02
2023-01-29T22:06:56.376Z,3.01
2023-01-29T22:09:23.114Z,3.06
2023-01-29T22:11:49.887Z,2.91
2023-01-29T22:14:18.412Z,2.95
2023-01-29T22:16:48.057Z,2.73
2023-01-29T22:19:14.895Z,2.95
2023-01-29T22:21:41.617Z,2.91
2023-01-29T22:24:08.503Z,2.91
2023-01-29T22:26:35.773Z,2.97
2023-01-29T22:29:02.552Z,3.07
2023-01-29T22:31:29.495Z,3.06
2023-01-29T22:33:56.349Z,2.96
2023-01-29T22:36:22.864Z,3.29
2023-01-29T22:38:49.564Z,3.06
2023-01-29T22:41:16.106Z,3.14
2023-01-29T22:43:44.002Z,2.95
2023-01-29T22:46:14.058Z,2.93
2023-01-29T22:48:48.565Z,3.14
2023-01-29T22:51:15.238Z,2.99
2023-01-29T22:53:49.307Z,3.01
2023-01-29T22:56:16.481Z,3.08
2023-01-29T22:58:43.036Z,2.98
2023-01-29T23:01:09.941Z,3.06
2023-01-29T23:03:36.662Z,2.85
2023-01-29T23:06:03.961Z,3.04
2023-01-29T23:08:32.403Z,3.12
2023-01-29T23:11:14.205Z,2.91
2023-01-29T23:13:45.638Z,3.11
2023-01-29T23:16:12.620Z,3.15
2023-01-29T23:18:39.216Z,3.11
2023-01-29T23:21:05.953Z,2.99
2023-01-29T23:23:35.612Z,2.92
2023-01-29T23:26:22.042Z,2.94
2023-01-29T23:28:51.142Z,3.14
2023-01-29T23:31:18.665Z,3.14
2023-01-29T23:33:45.367Z,3.22
2023-01-29T23:36:15.055Z,3.10
2023-01-29T23:38:41.742Z,3.26
2023-01-29T23:41:08.337Z,3.28
2023-01-29T23:43:35.141Z,3.34
2023-01-29T23:46:01.855Z,3.29
2023-01-29T23:48:28.558Z,3.39
2023-01-29T23:50:55.137Z,3.54
2023-01-29T23:53:21.750Z,3.50
2023-01-29T23:55:57.559Z,3.35
2023-01-29T23:58:24.314Z,3.33
